createdAt,value
2023-01-18T00:00:10.550Z,78.96
2023-01-18T00:02:39.742Z,78.39
2023-01-18T00:05:07.513Z,78.62
2023-01-18T00:07:34.108Z,78.24
2023-01-18T00:10:00.670Z,78.32
2023-01-18T00:12:27.328Z,77.68
2023-01-18T00:14:53.987Z,77.77
2023-01-18T00:17:20.599Z,77.62
2023-01-18T00:19:48.020Z,77.23
2023-01-18T00:22:14.719Z,76.82
2023-01-18T00:24:41.271Z,76.08
2023-01-18T00:27:10.707Z,76.57
2023-01-18T00:29:37.443Z,75.91
2023-01-18T00:32:04.538Z,76.19
2023-01-18T00:34:31.709Z,75.85
2023-01-18T00:36:58.316Z,75.72
2023-01-18T00:39:24.934Z,75.43
2023-01-18T00:42:11.710Z,75.07
2023-01-18T00:44:38.200Z,74.64
2023-01-18T00:47:04.800Z,74.45
2023-01-18T00:49:32.762Z,74.40
2023-01-18T00:51:59.372Z,74.51
2023-01-18T00:54:25.959Z,74.12
2023-01-18T00:56:52.757Z,74.42
2023-01-18T00:59:19.408Z,74.08
2023-01-18T01:01:46.136Z,74.60
2023-01-18T01:04:31.305Z,74.35
2023-01-18T01:06:58.777Z,73.89
2023-01-18T01:09:27.475Z,73.84
2023-01-18T01:12:13.681Z,73.84
2023-01-18T01:15:03.944Z,73.00
2023-01-18T01:17:51.329Z,73.48
2023-01-18T01:20:37.077Z,73.36
2023-01-18T01:23:37.713Z,73.35
2023-01-18T01:26:05.926Z,72.90
2023-01-18T01:28:32.529Z,73.02
2023-01-18T01:31:00.866Z,73.19
2023-01-18T01:33:31.123Z,72.98
2023-01-18T01:36:02.452Z,73.05
2023-01-18T01:38:29.041Z,72.42
2023-01-18T01:41:00.483Z,72.38
2023-01-18T01:43:51.817Z,72.78
2023-01-18T01:46:53.979Z,72.25
2023-01-18T01:49:23.275Z,72.08
2023-01-18T01:51:57.936Z,72.26
2023-01-18T01:54:30.383Z,72.08
2023-01-18T01:57:06.198Z,71.95
2023-01-18T01:59:40.700Z,72.07
2023-01-18T02:02:07.628Z,71.69
2023-01-18T02:04:35.404Z,71.54
2023-01-18T02:07:02.286Z,71.35
2023-01-18T02:09:28.915Z,71.67
2023-01-18T02:11:55.814Z,71.07
2023-01-18T02:14:26.771Z,71.03
2023-01-18T02:17:15.733Z,70.38
2023-01-18T02:20:01.294Z,70.46
2023-01-18T02:22:44.919Z,70.64
2023-01-18T02:25:17.684Z,70.34
2023-01-18T02:28:06.543Z,70.47
2023-01-18T02:30:47.075Z,70.69
2023-01-18T02:33:23.397Z,70.73
2023-01-18T02:35:57.658Z,70.39
2023-01-18T02:38:29.656Z,70.62
2023-01-18T02:41:45.913Z,69.99
2023-01-18T02:44:34.485Z,70.24
2023-01-18T02:47:01.928Z,69.79
2023-01-18T02:49:32.222Z,69.28
2023-01-18T02:52:03.927Z,69.29
2023-01-18T02:54:32.608Z,69.38
2023-01-18T02:57:02.459Z,68.97
2023-01-18T02:59:53.271Z,69.28
2023-01-18T03:02:24.578Z,68.64
2023-01-18T03:04:55.936Z,68.46
2023-01-18T03:07:54.872Z,68.56
2023-01-18T03:10:25.918Z,67.97
2023-01-18T03:13:11.064Z,67.98
2023-01-18T03:16:00.998Z,67.74
2023-01-18T03:19:02.435Z,67.86
2023-01-18T03:21:40.987Z,67.48
2023-01-18T03:24:09.828Z,67.51
2023-01-18T03:26:43.068Z,67.40
2023-01-18T03:29:30.901Z,67.04
2023-01-18T03:32:29.977Z,67.09
2023-01-18T03:35:09.791Z,67.17
2023-01-18T03:37:42.211Z,67.32
2023-01-18T03:40:28.796Z,67.03
2023-01-18T03:43:08.391Z,67.33
2023-01-18T03:45:42.728Z,66.79
2023-01-18T03:48:10.981Z,66.91
2023-01-18T03:50:54.339Z,66.87
2023-01-18T03:53:35.047Z,66.60
2023-01-18T03:56:09.239Z,66.92
2023-01-18T03:58:41.320Z,66.88
2023-01-18T04:01:08.029Z,66.41
2023-01-18T04:03:36.860Z,66.51
2023-01-18T04:06:07.068Z,66.16
2023-01-18T04:08:33.649Z,66.52
2023-01-18T04:11:00.235Z,66.18
2023-01-18T04:13:27.058Z,66.34
2023-01-18T04:15:53.709Z,66.57
2023-01-18T04:18:20.425Z,66.12
2023-01-18T04:20:47.133Z,66.27
2023-01-18T04:23:13.714Z,66.46
2023-01-18T04:25:40.915Z,66.76
2023-01-18T04:28:08.376Z,66.91
2023-01-18T04:30:34.916Z,66.49
2023-01-18T04:33:01.767Z,66.69
2023-01-18T04:35:29.409Z,67.06
2023-01-18T04:37:55.978Z,66.66
2023-01-18T04:40:22.556Z,66.86
2023-01-18T04:42:56.876Z,66.77
2023-01-18T04:45:23.712Z,66.83
2023-01-18T04:47:50.312Z,66.75
2023-01-18T04:50:17.194Z,66.80
2023-01-18T04:52:43.808Z,66.88
2023-01-18T04:55:11.747Z,66.58
2023-01-18T04:57:39.212Z,66.95
2023-01-18T05:00:08.758Z,66.88
2023-01-18T05:02:35.713Z,66.78
2023-01-18T05:05:05.065Z,67.06
2023-01-18T05:07:33.883Z,67.53
2023-01-18T05:10:03.963Z,66.45
2023-01-18T05:12:31.753Z,67.02
2023-01-18T05:14:58.361Z,66.97
2023-01-18T05:17:30.441Z,66.85
2023-01-18T05:19:57.224Z,66.80
2023-01-18T05:22:23.889Z,66.65
2023-01-18T05:24:50.448Z,67.10
2023-01-18T05:27:17.162Z,66.50
2023-01-18T05:29:44.202Z,66.60
2023-01-18T05:32:11.447Z,66.44
2023-01-18T05:34:38.181Z,66.61
2023-01-18T05:37:04.845Z,66.11
2023-01-18T05:39:31.780Z,65.63
2023-01-18T16:56:00.571Z,69.56
2023-01-18T16:58:28.867Z,70.86
2023-01-18T17:01:07.066Z,70.93
2023-01-18T17:03:36.029Z,71.98
2023-01-18T17:06:03.104Z,73.16
2023-01-18T17:08:30.566Z,73.51
2023-01-18T17:10:57.331Z,73.85
2023-01-18T17:13:24.382Z,73.88
2023-01-18T17:15:53.763Z,74.06
2023-01-18T17:18:24.099Z,74.20
2023-01-18T17:20:50.763Z,74.01
2023-01-18T17:23:17.832Z,73.79
2023-01-18T17:25:45.134Z,73.67
2023-01-18T17:28:17.789Z,73.63
2023-01-18T17:30:47.558Z,73.61
2023-01-18T17:33:19.777Z,73.58
2023-01-18T17:35:47.581Z,73.65
2023-01-18T17:38:23.211Z,73.38
2023-01-18T17:40:50.639Z,73.63
2023-01-18T17:43:28.497Z,73.90
2023-01-18T17:46:03.163Z,74.37
2023-01-18T17:48:30.557Z,74.12
2023-01-18T17:51:06.740Z,74.44
2023-01-18T17:53:34.334Z,74.79
2023-01-18T17:56:11.080Z,75.29
2023-01-18T17:58:41.036Z,75.49
2023-01-18T18:01:16.416Z,75.27
2023-01-18T18:03:48.578Z,75.25
2023-01-18T18:06:26.021Z,75.88
2023-01-18T18:08:57.972Z,75.81
2023-01-18T18:11:24.753Z,76.29
2023-01-18T18:13:51.411Z,76.41
2023-01-18T18:16:19.362Z,76.38
2023-01-18T18:18:46.145Z,76.86
2023-01-18T18:21:12.832Z,77.15
2023-01-18T18:23:42.589Z,77.19
2023-01-18T18:26:11.878Z,77.33
2023-01-18T18:28:38.450Z,77.57
2023-01-18T18:31:05.233Z,78.04
2023-01-18T18:33:33.777Z,77.51
2023-01-18T18:36:00.539Z,77.51
2023-01-18T18:38:28.183Z,77.50
2023-01-18T18:40:54.898Z,77.40
2023-01-18T18:43:21.709Z,77.95
2023-01-18T18:45:48.425Z,77.65
2023-01-18T18:48:15.001Z,77.50
2023-01-18T18:50:41.769Z,77.92
2023-01-18T18:53:08.590Z,78.34
2023-01-18T18:55:36.943Z,78.34
2023-01-18T18:58:14.093Z,78.52
2023-01-18T19:00:46.751Z,78.96
2023-01-18T19:03:13.837Z,78.96
2023-01-18T19:05:42.324Z,78.50
2023-01-18T19:08:09.657Z,79.02
2023-01-18T19:10:39.397Z,79.09
2023-01-18T19:13:08.695Z,78.90
2023-01-18T19:15:37.567Z,78.90
2023-01-18T19:18:07.143Z,79.23
2023-01-18T19:20:33.701Z,79.02
2023-01-18T19:23:04.024Z,79.58
2023-01-18T19:25:31.480Z,79.09
2023-01-18T19:28:00.675Z,79.75
2023-01-18T19:30:27.322Z,79.34
2023-01-18T19:32:54.004Z,79.56
2023-01-18T19:35:21.074Z,80.18
2023-01-18T19:37:48.924Z,80.28
2023-01-18T19:40:16.824Z,79.94
2023-01-18T19:42:44.538Z,80.57
2023-01-18T19:45:19.552Z,79.69
2023-01-18T19:47:52.782Z,80.31
2023-01-18T19:50:22.200Z,80.23
2023-01-18T19:52:48.957Z,80.67
2023-01-18T19:55:16.832Z,81.07
2023-01-18T19:57:43.616Z,81.10
2023-01-18T20:00:11.116Z,81.14
2023-01-18T20:02:40.628Z,81.58
2023-01-18T20:05:07.953Z,81.10
2023-01-18T20:07:34.629Z,81.40
2023-01-18T20:10:01.880Z,81.19
2023-01-18T20:12:31.353Z,81.33
2023-01-18T20:14:58.503Z,82.14
2023-01-18T20:17:26.050Z,82.29
2023-01-18T20:19:54.921Z,82.22
2023-01-18T20:22:26.975Z,81.76
2023-01-18T20:24:54.482Z,82.41
2023-01-18T20:27:21.097Z,82.28
2023-01-18T20:29:47.765Z,81.99
2023-01-18T20:32:17.404Z,82.50
2023-01-18T20:34:46.773Z,82.68
2023-01-18T20:37:14.367Z,81.96
2023-01-18T20:39:41.136Z,82.66
2023-01-18T20:42:08.828Z,82.55
2023-01-18T20:44:35.929Z,83.25
2023-01-18T20:47:02.599Z,82.85
2023-01-18T20:49:37.806Z,83.63
2023-01-18T20:52:06.813Z,83.32
2023-01-18T20:54:36.327Z,83.40
2023-01-18T20:57:05.128Z,83.49
2023-01-18T20:59:31.896Z,82.87
2023-01-18T21:01:58.776Z,82.57
2023-01-18T21:04:25.977Z,82.82
2023-01-18T21:06:52.761Z,82.61
2023-01-18T21:09:19.420Z,81.71
2023-01-18T21:11:45.998Z,81.90
2023-01-18T21:14:12.812Z,82.51
2023-01-18T21:16:39.659Z,82.68
2023-01-18T21:19:06.375Z,82.75
2023-01-18T21:21:33.126Z,82.34
2023-01-18T21:24:00.279Z,82.75
2023-01-18T21:26:27.057Z,83.42
2023-01-18T21:28:54.264Z,82.73
2023-01-18T21:31:21.748Z,83.16
2023-01-18T21:33:48.406Z,83.51
2023-01-18T21:36:17.742Z,83.59
2023-01-18T21:38:44.478Z,83.75
2023-01-18T21:41:30.288Z,83.89
2023-01-18T21:44:15.923Z,84.15
2023-01-18T21:46:51.034Z,84.58
2023-01-18T21:49:52.492Z,84.46
2023-01-18T21:52:41.977Z,84.35
2023-01-18T21:55:11.404Z,84.27
2023-01-18T21:57:38.860Z,85.13
2023-01-18T22:00:06.479Z,84.79
2023-01-18T22:02:33.938Z,84.75
2023-01-18T22:05:00.665Z,84.64
2023-01-18T22:07:29.971Z,84.78
2023-01-18T22:10:05.169Z,84.69
2023-01-18T22:12:35.080Z,84.51
2023-01-18T22:15:03.108Z,84.50
2023-01-18T22:17:29.911Z,84.33
2023-01-18T22:19:56.619Z,84.02
2023-01-18T22:22:23.282Z,83.90
2023-01-18T22:24:49.955Z,84.18
2023-01-18T22:27:16.537Z,83.47
2023-01-18T22:29:43.151Z,83.03
2023-01-18T22:32:09.875Z,82.82
2023-01-18T22:34:36.469Z,82.50
2023-01-18T22:37:03.579Z,82.34
2023-01-18T22:39:30.215Z,81.95
2023-01-18T22:41:56.872Z,81.85
2023-01-18T22:44:23.519Z,81.36
2023-01-18T22:46:50.179Z,81.23
2023-01-18T22:49:16.847Z,80.88
2023-01-18T22:51:43.631Z,80.32
2023-01-18T22:54:14.958Z,80.05
2023-01-18T22:56:41.526Z,80.36
2023-01-18T22:59:09.045Z,79.99
2023-01-18T23:01:36.304Z,79.27
2023-01-18T23:04:04.179Z,79.04
2023-01-18T23:06:50.931Z,78.36
2023-01-18T23:09:17.804Z,78.45
2023-01-18T23:11:44.917Z,78.01
2023-01-18T23:14:30.846Z,78.07
2023-01-18T23:17:16.092Z,77.60
2023-01-18T23:19:42.715Z,77.49
2023-01-18T23:22:09.363Z,76.98
2023-01-18T23:24:36.981Z,76.80
2023-01-18T23:27:05.371Z,76.73
2023-01-18T23:29:31.993Z,76.72
2023-01-18T23:31:58.856Z,76.81
2023-01-18T23:34:26.735Z,76.46
2023-01-18T23:36:53.784Z,76.25
2023-01-18T23:39:40.020Z,75.81
2023-01-18T23:42:24.790Z,75.74
2023-01-18T23:45:10.163Z,75.15
2023-01-18T23:47:55.559Z,75.30
2023-01-18T23:50:40.964Z,74.63
2023-01-18T23:53:31.198Z,74.94
2023-01-18T23:55:59.234Z,74.40
2023-01-18T23:58:26.029Z,74.36
